sensor_id;sensor_type;location;lat;lon;timestamp;pressure;altitude;pressure_sealevel;temperature;humidity
22653;BME280;11493;43.344;26.226;2023-12-20T00:00:11;99608.72;;;1.18;100.00
22653;BME280;11493;43.344;26.226;2023-12-20T00:02:38;99585.72;;;1.04;100.00
22653;BME280;11493;43.344;26.226;2023-12-20T00:05:05;99605.75;;;1.20;100.00
22653;BME280;11493;43.344;26.226;2023-12-20T00:07:32;99615.69;;;1.14;100.00
22653;BME280;11493;43.344;26.226;2023-12-20T00:09:59;99607.22;;;1.11;100.00
22653;BME280;11493;43.344;26.226;2023-12-20T00:12:26;99615.13;;;1.12;100.00
22653;BME280;11493;43.344;26.226;2023-12-20T00:14:53;99611.75;;;1.05;100.00
22653;BME280;11493;43.344;26.226;2023-12-20T00:17:20;99598.69;;;1.02;100.00
22653;BME280;11493;43.344;26.226;2023-12-20T00:19:47;99612.66;;;1.11;100.00
22653;BME280;11493;43.344;26.226;2023-12-20T00:22:14;99617.81;;;1.12;100.00
22653;BME280;11493;43.344;26.226;2023-12-20T00:24:43;99601.41;;;1.02;100.00
22653;BME280;11493;43.344;26.226;2023-12-20T00:27:12;99616.19;;;1.11;100.00
22653;BME280;11493;43.344;26.226;2023-12-20T00:29:38;99607.47;;;1.09;100.00
22653;BME280;11493;43.344;26.226;2023-12-20T00:32:05;99582.75;;;0.89;100.00
22653;BME280;11493;43.344;26.226;2023-12-20T00:34:32;99589.31;;;0.93;100.00
22653;BME280;11493;43.344;26.226;2023-12-20T00:36:59;99595.41;;;1.00;100.00
22653;BME280;11493;43.344;26.226;2023-12-20T00:39:26;99599.19;;;0.99;100.00
22653;BME280;11493;43.344;26.226;2023-12-20T00:41:54;99594.81;;;0.98;100.00
22653;BME280;11493;43.344;26.226;2023-12-20T00:44:21;99587.53;;;0.98;100.00
22653;BME280;11493;43.344;26.226;2023-12-20T00:46:48;99571.34;;;0.87;100.00
22653;BME280;11493;43.344;26.226;2023-12-20T00:49:15;99561.34;;;0.71;100.00
22653;BME280;11493;43.344;26.226;2023-12-20T00:51:43;99564.38;;;0.74;100.00
22653;BME280;11493;43.344;26.226;2023-12-20T00:54:09;99565.69;;;0.72;100.00
22653;BME280;11493;43.344;26.226;2023-12-20T00:56:37;99581.59;;;0.85;100.00
22653;BME280;11493;43.344;26.226;2023-12-20T00:59:04;99552.53;;;0.80;100.00
22653;BME280;11493;43.344;26.226;2023-12-20T01:01:31;99560.91;;;0.79;100.00
22653;BME280;11493;43.344;26.226;2023-12-20T01:04:00;99548.91;;;0.75;100.00
22653;BME280;11493;43.344;26.226;2023-12-20T01:06:27;99550.91;;;0.79;100.00
22653;BME280;11493;43.344;26.226;2023-12-20T01:08:53;99528.84;;;0.71;100.00
22653;BME280;11493;43.344;26.226;2023-12-20T01:11:20;99545.00;;;0.82;100.00
22653;BME280;11493;43.344;26.226;2023-12-20T01:13:47;99508.06;;;0.59;100.00
22653;BME280;11493;43.344;26.226;2023-12-20T01:16:14;99533.50;;;0.75;100.00
22653;BME280;11493;43.344;26.226;2023-12-20T01:18:44;99524.50;;;0.70;100.00
22653;BME280;11493;43.344;26.226;2023-12-20T01:21:11;99498.63;;;0.62;100.00
22653;BME280;11493;43.344;26.226;2023-12-20T01:23:38;99505.94;;;0.61;100.00
22653;BME280;11493;43.344;26.226;2023-12-20T01:26:04;99502.00;;;0.69;100.00
22653;BME280;11493;43.344;26.226;2023-12-20T01:28:32;99505.19;;;0.83;100.00
22653;BME280;11493;43.344;26.226;2023-12-20T01:30:59;99495.19;;;0.67;100.00
22653;BME280;11493;43.344;26.226;2023-12-20T01:33:26;99481.00;;;0.59;100.00
22653;BME280;11493;43.344;26.226;2023-12-20T01:35:53;99463.44;;;0.45;100.00
22653;BME280;11493;43.344;26.226;2023-12-20T01:38:19;99497.72;;;0.56;100.00
22653;BME280;11493;43.344;26.226;2023-12-20T01:40:49;99474.41;;;0.39;100.00
22653;BME280;11493;43.344;26.226;2023-12-20T01:43:16;99496.25;;;0.49;100.00
22653;BME280;11493;43.344;26.226;2023-12-20T01:45:43;99472.47;;;0.51;100.00
22653;BME280;11493;43.344;26.226;2023-12-20T01:48:10;99486.66;;;0.58;100.00
22653;BME280;11493;43.344;26.226;2023-12-20T01:50:38;99424.13;;;0.26;100.00
22653;BME280;11493;43.344;26.226;2023-12-20T01:53:07;99469.69;;;0.62;100.00
22653;BME280;11493;43.344;26.226;2023-12-20T01:55:39;99444.06;;;0.53;100.00
22653;BME280;11493;43.344;26.226;2023-12-20T01:58:10;99425.38;;;0.35;100.00
22653;BME280;11493;43.344;26.226;2023-12-20T02:00:39;99459.16;;;0.49;100.00
22653;BME280;11493;43.344;26.226;2023-12-20T02:03:11;99448.00;;;0.46;100.00
22653;BME280;11493;43.344;26.226;2023-12-20T02:05:38;99433.91;;;0.44;100.00
22653;BME280;11493;43.344;26.226;2023-12-20T02:08:06;99433.81;;;0.55;100.00
22653;BME280;11493;43.344;26.226;2023-12-20T02:10:33;99432.69;;;0.51;100.00
22653;BME280;11493;43.344;26.226;2023-12-20T02:13:00;99416.91;;;0.31;100.00
22653;BME280;11493;43.344;26.226;2023-12-20T02:15:27;99413.00;;;0.39;100.00
22653;BME280;11493;43.344;26.226;2023-12-20T02:17:54;99399.13;;;0.36;100.00
22653;BME280;11493;43.344;26.226;2023-12-20T02:20:21;99420.53;;;0.37;100.00
22653;BME280;11493;43.344;26.226;2023-12-20T02:22:48;99411.75;;;0.30;100.00
22653;BME280;11493;43.344;26.226;2023-12-20T02:25:18;99408.88;;;0.20;100.00
22653;BME280;11493;43.344;26.226;2023-12-20T02:27:45;99418.81;;;0.31;100.00
22653;BME280;11493;43.344;26.226;2023-12-20T02:30:16;99412.34;;;0.32;100.00
22653;BME280;11493;43.344;26.226;2023-12-20T02:32:43;99416.34;;;0.29;100.00
22653;BME280;11493;43.344;26.226;2023-12-20T02:35:10;99389.84;;;0.15;100.00
22653;BME280;11493;43.344;26.226;2023-12-20T02:37:37;99409.47;;;0.22;100.00
22653;BME280;11493;43.344;26.226;2023-12-20T02:40:04;99405.78;;;0.28;100.00
22653;BME280;11493;43.344;26.226;2023-12-20T02:42:31;99395.34;;;0.20;100.00
22653;BME280;11493;43.344;26.226;2023-12-20T02:44:58;99392.06;;;0.18;100.00
22653;BME280;11493;43.344;26.226;2023-12-20T02:47:25;99391.25;;;0.17;100.00
22653;BME280;11493;43.344;26.226;2023-12-20T02:49:52;99374.59;;;0.09;100.00
22653;BME280;11493;43.344;26.226;2023-12-20T02:52:19;99390.44;;;0.17;100.00
22653;BME280;11493;43.344;26.226;2023-12-20T02:54:47;99387.00;;;0.21;100.00
22653;BME280;11493;43.344;26.226;2023-12-20T02:57:14;99383.38;;;0.16;100.00
22653;BME280;11493;43.344;26.226;2023-12-20T02:59:41;99372.38;;;0.06;100.00
22653;BME280;11493;43.344;26.226;2023-12-20T03:02:08;99364.19;;;0.00;100.00
22653;BME280;11493;43.344;26.226;2023-12-20T03:04:35;99368.63;;;0.07;100.00
22653;BME280;11493;43.344;26.226;2023-12-20T03:07:02;99366.50;;;0.09;100.00
22653;BME280;11493;43.344;26.226;2023-12-20T03:09:29;99359.34;;;0.03;100.00
22653;BME280;11493;43.344;26.226;2023-12-20T03:12:04;99375.66;;;0.08;100.00
22653;BME280;11493;43.344;26.226;2023-12-20T03:14:31;99363.41;;;0.00;100.00
22653;BME280;11493;43.344;26.226;2023-12-20T03:16:58;99374.34;;;0.10;100.00
22653;BME280;11493;43.344;26.226;2023-12-20T03:19:26;99377.63;;;0.12;100.00
22653;BME280;11493;43.344;26.226;2023-12-20T03:21:53;99371.97;;;0.14;100.00
22653;BME280;11493;43.344;26.226;2023-12-20T03:24:20;99365.66;;;0.08;100.00
22653;BME280;11493;43.344;26.226;2023-12-20T03:26:47;99329.94;;;-0.11;100.00
22653;BME280;11493;43.344;26.226;2023-12-20T03:29:14;99361.97;;;0.14;100.00
22653;BME280;11493;43.344;26.226;2023-12-20T03:31:41;99344.84;;;0.09;100.00
22653;BME280;11493;43.344;26.226;2023-12-20T03:34:08;99351.97;;;0.15;100.00
22653;BME280;11493;43.344;26.226;2023-12-20T03:36:34;99330.13;;;-0.01;100.00
22653;BME280;11493;43.344;26.226;2023-12-20T03:39:01;99340.34;;;0.14;100.00
22653;BME280;11493;43.344;26.226;2023-12-20T03:41:29;99339.84;;;0.17;100.00
22653;BME280;11493;43.344;26.226;2023-12-20T03:43:56;99341.06;;;0.10;100.00
22653;BME280;11493;43.344;26.226;2023-12-20T03:46:23;99316.50;;;-0.06;100.00
22653;BME280;11493;43.344;26.226;2023-12-20T03:48:50;99321.44;;;-0.03;100.00
22653;BME280;11493;43.344;26.226;2023-12-20T03:51:17;99315.03;;;-0.13;100.00
22653;BME280;11493;43.344;26.226;2023-12-20T03:53:43;99316.44;;;-0.11;100.00
22653;BME280;11493;43.344;26.226;2023-12-20T03:56:10;99305.19;;;-0.19;100.00
22653;BME280;11493;43.344;26.226;2023-12-20T03:58:37;99311.75;;;-0.15;100.00
22653;BME280;11493;43.344;26.226;2023-12-20T04:01:09;99299.94;;;-0.26;100.00
22653;BME280;11493;43.344;26.226;2023-12-20T04:03:38;99281.34;;;-0.39;100.00
22653;BME280;11493;43.344;26.226;2023-12-20T04:06:22;99310.84;;;-0.21;100.00
22653;BME280;11493;43.344;26.226;2023-12-20T04:08:49;99304.94;;;-0.18;100.00
22653;BME280;11493;43.344;26.226;2023-12-20T04:11:16;99279.63;;;-0.28;100.00
22653;BME280;11493;43.344;26.226;2023-12-20T04:13:43;99291.25;;;-0.28;100.00
22653;BME280;11493;43.344;26.226;2023-12-20T04:16:09;99297.50;;;-0.27;100.00
22653;BME280;11493;43.344;26.226;2023-12-20T04:18:36;99303.22;;;-0.24;100.00
22653;BME280;11493;43.344;26.226;2023-12-20T04:21:04;99292.75;;;-0.20;100.00
22653;BME280;11493;43.344;26.226;2023-12-20T04:23:30;99268.81;;;-0.28;100.00
22653;BME280;11493;43.344;26.226;2023-12-20T04:25:57;99287.75;;;-0.12;100.00
22653;BME280;11493;43.344;26.226;2023-12-20T04:28:24;99263.66;;;-0.30;100.00
22653;BME280;11493;43.344;26.226;2023-12-20T04:30:52;99275.69;;;-0.21;100.00
22653;BME280;11493;43.344;26.226;2023-12-20T04:33:20;99265.72;;;-0.20;100.00
22653;BME280;11493;43.344;26.226;2023-12-20T04:35:47;99274.38;;;-0.18;100.00
22653;BME280;11493;43.344;26.226;2023-12-20T04:38:14;99269.63;;;-0.28;100.00
22653;BME280;11493;43.344;26.226;2023-12-20T04:40:41;99242.25;;;-0.48;100.00
22653;BME280;11493;43.344;26.226;2023-12-20T04:43:08;99280.44;;;-0.28;100.00
22653;BME280;11493;43.344;26.226;2023-12-20T04:45:37;99248.81;;;-0.44;100.00
22653;BME280;11493;43.344;26.226;2023-12-20T04:48:05;99250.72;;;-0.45;100.00
22653;BME280;11493;43.344;26.226;2023-12-20T04:50:32;99273.41;;;-0.29;100.00
22653;BME280;11493;43.344;26.226;2023-12-20T04:53:00;99268.00;;;-0.29;100.00
22653;BME280;11493;43.344;26.226;2023-12-20T04:55:27;99268.66;;;-0.22;100.00
22653;BME280;11493;43.344;26.226;2023-12-20T04:57:53;99244.56;;;-0.40;100.00
22653;BME280;11493;43.344;26.226;2023-12-20T05:00:21;99274.22;;;-0.28;100.00
22653;BME280;11493;43.344;26.226;2023-12-20T05:02:48;99262.09;;;-0.26;100.00
22653;BME280;11493;43.344;26.226;2023-12-20T05:05:15;99255.63;;;-0.25;100.00
22653;BME280;11493;43.344;26.226;2023-12-20T05:07:44;99244.81;;;-0.25;100.00
22653;BME280;11493;43.344;26.226;2023-12-20T05:10:11;99253.91;;;-0.14;100.00
22653;BME280;11493;43.344;26.226;2023-12-20T05:12:38;99241.53;;;-0.27;100.00
22653;BME280;11493;43.344;26.226;2023-12-20T05:15:06;99241.13;;;-0.19;100.00
22653;BME280;11493;43.344;26.226;2023-12-20T05:17:33;99241.44;;;-0.15;100.00
22653;BME280;11493;43.344;26.226;2023-12-20T05:20:01;99249.81;;;-0.17;100.00
22653;BME280;11493;43.344;26.226;2023-12-20T05:22:28;99243.59;;;-0.17;100.00
22653;BME280;11493;43.344;26.226;2023-12-20T05:24:55;99247.50;;;-0.08;100.00
22653;BME280;11493;43.344;26.226;2023-12-20T05:27:22;99252.09;;;-0.09;100.00
22653;BME280;11493;43.344;26.226;2023-12-20T05:29:49;99260.78;;;-0.07;100.00
22653;BME280;11493;43.344;26.226;2023-12-20T05:32:16;99243.66;;;-0.12;100.00
22653;BME280;11493;43.344;26.226;2023-12-20T05:34:43;99242.84;;;-0.13;100.00
22653;BME280;11493;43.344;26.226;2023-12-20T05:37:11;99250.72;;;-0.11;100.00
22653;BME280;11493;43.344;26.226;2023-12-20T05:39:38;99240.31;;;-0.19;100.00
22653;BME280;11493;43.344;26.226;2023-12-20T05:42:05;99232.94;;;-0.24;100.00
22653;BME280;11493;43.344;26.226;2023-12-20T05:44:32;99242.25;;;-0.15;100.00
22653;BME280;11493;43.344;26.226;2023-12-20T05:46:58;99228.00;;;-0.27;100.00
22653;BME280;11493;43.344;26.226;2023-12-20T05:49:25;99247.91;;;-0.16;100.00
22653;BME280;11493;43.344;26.226;2023-12-20T05:51:52;99238.91;;;-0.22;100.00
22653;BME280;11493;43.344;26.226;2023-12-20T05:54:20;99243.09;;;-0.14;100.00
22653;BME280;11493;43.344;26.226;2023-12-20T05:56:48;99220.22;;;-0.40;100.00
22653;BME280;11493;43.344;26.226;2023-12-20T05:59:15;99251.69;;;-0.17;100.00
22653;BME280;11493;43.344;26.226;2023-12-20T06:01:42;99252.50;;;-0.17;100.00
22653;BME280;11493;43.344;26.226;2023-12-20T06:04:09;99239.00;;;-0.17;100.00
22653;BME280;11493;43.344;26.226;2023-12-20T06:06:41;99233.44;;;-0.27;100.00
22653;BME280;11493;43.344;26.226;2023-12-20T06:09:08;99229.16;;;-0.23;100.00
22653;BME280;11493;43.344;26.226;2023-12-20T06:11:35;99240.13;;;-0.13;100.00
22653;BME280;11493;43.344;26.226;2023-12-20T06:14:02;99242.91;;;-0.08;100.00
22653;BME280;11493;43.344;26.226;2023-12-20T06:16:29;99230.97;;;-0.12;100.00
22653;BME280;11493;43.344;26.226;2023-12-20T06:18:56;99243.16;;;-0.09;100.00
22653;BME280;11493;43.344;26.226;2023-12-20T06:21:23;99215.72;;;-0.18;100.00
22653;BME280;11493;43.344;26.226;2023-12-20T06:23:50;99238.97;;;0.00;100.00
22653;BME280;11493;43.344;26.226;2023-12-20T06:26:17;99240.66;;;0.06;100.00
22653;BME280;11493;43.344;26.226;2023-12-20T06:28:43;99239.28;;;0.04;100.00
22653;BME280;11493;43.344;26.226;2023-12-20T06:31:10;99243.00;;;-0.03;100.00
22653;BME280;11493;43.344;26.226;2023-12-20T06:33:38;99240.34;;;0.03;100.00
22653;BME280;11493;43.344;26.226;2023-12-20T06:36:10;99240.16;;;0.09;100.00
22653;BME280;11493;43.344;26.226;2023-12-20T06:38:37;99239.28;;;0.04;100.00
22653;BME280;11493;43.344;26.226;2023-12-20T06:41:04;99202.78;;;-0.16;100.00
22653;BME280;11493;43.344;26.226;2023-12-20T06:43:31;99215.88;;;-0.08;100.00
22653;BME280;11493;43.344;26.226;2023-12-20T06:46:15;99236.00;;;0.02;100.00
22653;BME280;11493;43.344;26.226;2023-12-20T06:48:42;99230.91;;;0.05;100.00
22653;BME280;11493;43.344;26.226;2023-12-20T06:51:14;99196.38;;;-0.10;100.00
22653;BME280;11493;43.344;26.226;2023-12-20T06:53:42;99219.91;;;0.12;100.00
22653;BME280;11493;43.344;26.226;2023-12-20T06:56:10;99212.13;;;0.15;100.00
22653;BME280;11493;43.344;26.226;2023-12-20T06:58:43;99214.19;;;0.08;100.00
22653;BME280;11493;43.344;26.226;2023-12-20T07:01:13;99209.03;;;0.07;100.00
22653;BME280;11493;43.344;26.226;2023-12-20T07:03:42;99210.97;;;0.11;100.00
22653;BME280;11493;43.344;26.226;2023-12-20T07:06:09;99204.69;;;0.06;100.00
22653;BME280;11493;43.344;26.226;2023-12-20T07:08:36;99208.59;;;0.15;100.00
22653;BME280;11493;43.344;26.226;2023-12-20T07:11:03;99197.13;;;0.08;100.00
22653;BME280;11493;43.344;26.226;2023-12-20T07:13:30;99201.69;;;0.24;100.00
22653;BME280;11493;43.344;26.226;2023-12-20T07:15:58;99189.72;;;0.20;100.00
22653;BME280;11493;43.344;26.226;2023-12-20T07:18:24;99201.69;;;0.24;100.00
22653;BME280;11493;43.344;26.226;2023-12-20T07:20:51;99216.72;;;0.37;100.00
22653;BME280;11493;43.344;26.226;2023-12-20T07:23:18;99206.66;;;0.32;100.00
22653;BME280;11493;43.344;26.226;2023-12-20T07:25:46;99206.97;;;0.36;100.00
22653;BME280;11493;43.344;26.226;2023-12-20T07:28:13;99128.34;;;-0.02;100.00
22653;BME280;11493;43.344;26.226;2023-12-20T07:30:40;99190.69;;;0.52;100.00
22653;BME280;11493;43.344;26.226;2023-12-20T07:33:07;99192.69;;;0.62;100.00
22653;BME280;11493;43.344;26.226;2023-12-20T07:35:36;99191.69;;;0.68;100.00
22653;BME280;11493;43.344;26.226;2023-12-20T07:38:03;99190.75;;;0.84;100.00
22653;BME280;11493;43.344;26.226;2023-12-20T07:40:30;99175.00;;;0.81;100.00
22653;BME280;11493;43.344;26.226;2023-12-20T07:42:57;99169.69;;;0.91;100.00
22653;BME280;11493;43.344;26.226;2023-12-20T07:45:25;99186.66;;;1.09;100.00
22653;BME280;11493;43.344;26.226;2023-12-20T07:47:51;99173.88;;;1.04;100.00
22653;BME280;11493;43.344;26.226;2023-12-20T07:50:18;99177.38;;;1.31;100.00
22653;BME280;11493;43.344;26.226;2023-12-20T07:52:45;99168.56;;;1.46;100.00
22653;BME280;11493;43.344;26.226;2023-12-20T07:55:12;99186.31;;;1.64;100.00
22653;BME280;11493;43.344;26.226;2023-12-20T07:57:39;99179.88;;;1.75;100.00
22653;BME280;11493;43.344;26.226;2023-12-20T08:00:06;99169.28;;;1.74;100.00
22653;BME280;11493;43.344;26.226;2023-12-20T08:02:34;99179.72;;;1.92;100.00
22653;BME280;11493;43.344;26.226;2023-12-20T08:05:00;99178.94;;;1.96;100.00
22653;BME280;11493;43.344;26.226;2023-12-20T08:07:27;99171.66;;;2.07;100.00
22653;BME280;11493;43.344;26.226;2023-12-20T08:09:54;99180.69;;;2.23;100.00
22653;BME280;11493;43.344;26.226;2023-12-20T08:12:23;99154.34;;;2.23;100.00
22653;BME280;11493;43.344;26.226;2023-12-20T08:14:50;99167.22;;;2.48;100.00
22653;BME280;11493;43.344;26.226;2023-12-20T08:17:17;99161.78;;;2.48;100.00
22653;BME280;11493;43.344;26.226;2023-12-20T08:19:45;99153.66;;;2.48;100.00
22653;BME280;11493;43.344;26.226;2023-12-20T08:22:12;99127.00;;;2.35;100.00
22653;BME280;11493;43.344;26.226;2023-12-20T08:24:39;99131.38;;;2.46;100.00
22653;BME280;11493;43.344;26.226;2023-12-20T08:27:06;99149.63;;;2.66;100.00
22653;BME280;11493;43.344;26.226;2023-12-20T08:29:33;99123.28;;;2.72;100.00
22653;BME280;11493;43.344;26.226;2023-12-20T08:32:00;99143.19;;;2.92;100.00
22653;BME280;11493;43.344;26.226;2023-12-20T08:34:27;99139.09;;;3.00;100.00
22653;BME280;11493;43.344;26.226;2023-12-20T08:36:54;99126.88;;;3.08;100.00
22653;BME280;11493;43.344;26.226;2023-12-20T08:39:21;99119.53;;;3.23;100.00
22653;BME280;11493;43.344;26.226;2023-12-20T08:41:48;99099.41;;;3.24;100.00
22653;BME280;11493;43.344;26.226;2023-12-20T08:44:15;99111.34;;;3.59;100.00
22653;BME280;11493;43.344;26.226;2023-12-20T08:46:43;99104.81;;;3.70;100.00
22653;BME280;11493;43.344;26.226;2023-12-20T08:49:10;99098.22;;;3.86;100.00
22653;BME280;11493;43.344;26.226;2023-12-20T08:51:37;99106.81;;;4.19;100.00
22653;BME280;11493;43.344;26.226;2023-12-20T08:54:07;99112.19;;;4.39;100.00
22653;BME280;11493;43.344;26.226;2023-12-20T08:56:34;99087.66;;;4.44;100.00
22653;BME280;11493;43.344;26.226;2023-12-20T08:59:01;99075.00;;;4.58;100.00
22653;BME280;11493;43.344;26.226;2023-12-20T09:01:29;99089.53;;;4.88;100.00
22653;BME280;11493;43.344;26.226;2023-12-20T09:03:56;99069.28;;;4.99;100.00
22653;BME280;11493;43.344;26.226;2023-12-20T09:06:23;99052.34;;;5.02;100.00
22653;BME280;11493;43.344;26.226;2023-12-20T09:08:51;99079.84;;;5.40;100.00
22653;BME280;11493;43.344;26.226;2023-12-20T09:11:18;99065.34;;;5.44;100.00
22653;BME280;11493;43.344;26.226;2023-12-20T09:13:45;99054.94;;;5.46;100.00
22653;BME280;11493;43.344;26.226;2023-12-20T09:16:12;99050.97;;;5.63;100.00
22653;BME280;11493;43.344;26.226;2023-12-20T09:18:40;99041.97;;;5.86;100.00
22653;BME280;11493;43.344;26.226;2023-12-20T09:21:07;99046.97;;;6.03;100.00
22653;BME280;11493;43.344;26.226;2023-12-20T09:23:34;99027.72;;;6.13;100.00
22653;BME280;11493;43.344;26.226;2023-12-20T09:26:01;99019.84;;;6.30;100.00
22653;BME280;11493;43.344;26.226;2023-12-20T09:28:27;99019.50;;;6.55;100.00
22653;BME280;11493;43.344;26.226;2023-12-20T09:30:56;99011.97;;;6.66;100.00
22653;BME280;11493;43.344;26.226;2023-12-20T09:33:24;99001.56;;;6.82;100.00
22653;BME280;11493;43.344;26.226;2023-12-20T09:35:51;99006.78;;;6.97;100.00
22653;BME280;11493;43.344;26.226;2023-12-20T09:38:19;99003.97;;;7.02;100.00
22653;BME280;11493;43.344;26.226;2023-12-20T09:40:45;99000.03;;;7.08;100.00
22653;BME280;11493;43.344;26.226;2023-12-20T09:43:18;98986.22;;;7.00;100.00
22653;BME280;11493;43.344;26.226;2023-12-20T09:45:53;98994.56;;;7.08;100.00
22653;BME280;11493;43.344;26.226;2023-12-20T09:48:20;98967.97;;;6.95;100.00
22653;BME280;11493;43.344;26.226;2023-12-20T09:50:47;98975.88;;;6.97;100.00
22653;BME280;11493;43.344;26.226;2023-12-20T09:53:19;98981.56;;;7.00;100.00
22653;BME280;11493;43.344;26.226;2023-12-20T09:55:46;98961.56;;;6.86;100.00
22653;BME280;11493;43.344;26.226;2023-12-20T09:58:13;98960.91;;;6.94;100.00
22653;BME280;11493;43.344;26.226;2023-12-20T10:00:40;98953.50;;;6.95;100.00
22653;BME280;11493;43.344;26.226;2023-12-20T10:03:08;98947.81;;;6.91;100.00
22653;BME280;11493;43.344;26.226;2023-12-20T10:05:35;98943.47;;;6.90;100.00
22653;BME280;11493;43.344;26.226;2023-12-20T10:08:03;98909.84;;;6.89;100.00
22653;BME280;11493;43.344;26.226;2023-12-20T10:10:30;98939.19;;;7.30;100.00
22653;BME280;11493;43.344;26.226;2023-12-20T10:13:12;98933.09;;;7.47;100.00
22653;BME280;11493;43.344;26.226;2023-12-20T10:15:40;98928.13;;;7.63;100.00
22653;BME280;11493;43.344;26.226;2023-12-20T10:18:09;98920.41;;;7.78;100.00
22653;BME280;11493;43.344;26.226;2023-12-20T10:20:37;98903.63;;;7.94;100.00
22653;BME280;11493;43.344;26.226;2023-12-20T10:23:04;98917.88;;;8.18;100.00
22653;BME280;11493;43.344;26.226;2023-12-20T10:25:31;98911.25;;;8.33;100.00
22653;BME280;11493;43.344;26.226;2023-12-20T10:28:12;98908.47;;;8.46;99.28
22653;BME280;11493;43.344;26.226;2023-12-20T10:30:40;98902.53;;;8.53;97.45
22653;BME280;11493;43.344;26.226;2023-12-20T10:33:08;98884.16;;;8.53;94.74
22653;BME280;11493;43.344;26.226;2023-12-20T10:35:38;98897.06;;;8.75;93.53
22653;BME280;11493;43.344;26.226;2023-12-20T10:38:11;98885.31;;;8.83;93.29
22653;BME280;11493;43.344;26.226;2023-12-20T10:40:40;98883.78;;;9.00;91.00
22653;BME280;11493;43.344;26.226;2023-12-20T10:43:08;98866.03;;;9.06;91.70
22653;BME280;11493;43.344;26.226;2023-12-20T10:45:36;98861.28;;;9.20;90.79
22653;BME280;11493;43.344;26.226;2023-12-20T10:48:03;98876.84;;;9.42;90.56
22653;BME280;11493;43.344;26.226;2023-12-20T10:50:31;98863.47;;;9.49;90.49
22653;BME280;11493;43.344;26.226;2023-12-20T10:52:58;98847.63;;;9.46;90.47
22653;BME280;11493;43.344;26.226;2023-12-20T10:55:27;98831.69;;;9.65;90.29
22653;BME280;11493;43.344;26.226;2023-12-20T10:58:01;98856.75;;;9.89;90.90
22653;BME280;11493;43.344;26.226;2023-12-20T11:00:29;98854.16;;;10.02;91.19
22653;BME280;11493;43.344;26.226;2023-12-20T11:03:01;98850.63;;;10.10;90.84
22653;BME280;11493;43.344;26.226;2023-12-20T11:08:32;98853.25;;;10.24;90.14
22653;BME280;11493;43.344;26.226;2023-12-20T11:11:07;98857.13;;;10.31;90.30
22653;BME280;11493;43.344;26.226;2023-12-20T11:13:41;98830.59;;;10.35;90.26
22653;BME280;11493;43.344;26.226;2023-12-20T11:16:10;98836.69;;;10.49;90.28
22653;BME280;11493;43.344;26.226;2023-12-20T11:18:40;98837.97;;;10.61;90.10
22653;BME280;11493;43.344;26.226;2023-12-20T11:21:07;98827.09;;;10.73;89.92
22653;BME280;11493;43.344;26.226;2023-12-20T11:23:34;98809.59;;;10.77;88.05
22653;BME280;11493;43.344;26.226;2023-12-20T11:26:02;98794.72;;;10.78;86.78
22653;BME280;11493;43.344;26.226;2023-12-20T11:28:29;98793.72;;;10.83;86.56
22653;BME280;11493;43.344;26.226;2023-12-20T11:30:58;98784.16;;;10.89;86.06
22653;BME280;11493;43.344;26.226;2023-12-20T11:33:37;98791.91;;;10.96;85.46
22653;BME280;11493;43.344;26.226;2023-12-20T11:36:15;98784.59;;;11.00;85.55
22653;BME280;11493;43.344;26.226;2023-12-20T11:38:57;98776.81;;;11.02;85.35
22653;BME280;11493;43.344;26.226;2023-12-20T11:41:25;98771.25;;;11.10;84.85
22653;BME280;11493;43.344;26.226;2023-12-20T11:43:53;98779.41;;;11.28;84.26
22653;BME280;11493;43.344;26.226;2023-12-20T11:46:21;98762.88;;;11.28;83.91
22653;BME280;11493;43.344;26.226;2023-12-20T11:48:48;98767.88;;;11.34;83.97
22653;BME280;11493;43.344;26.226;2023-12-20T11:51:15;98755.09;;;11.30;82.49
22653;BME280;11493;43.344;26.226;2023-12-20T11:53:42;98757.97;;;11.33;82.59
22653;BME280;11493;43.344;26.226;2023-12-20T11:56:09;98753.19;;;11.22;82.54
22653;BME280;11493;43.344;26.226;2023-12-20T11:58:37;98746.25;;;11.15;82.28
22653;BME280;11493;43.344;26.226;2023-12-20T12:01:05;98744.59;;;11.23;82.41
22653;BME280;11493;43.344;26.226;2023-12-20T12:03:35;98738.16;;;11.19;82.92
22653;BME280;11493;43.344;26.226;2023-12-20T12:06:02;98724.25;;;11.15;82.86
22653;BME280;11493;43.344;26.226;2023-12-20T12:08:32;98728.75;;;11.20;82.93
22653;BME280;11493;43.344;26.226;2023-12-20T12:10:59;98733.41;;;11.28;82.77
22653;BME280;11493;43.344;26.226;2023-12-20T12:13:26;98727.16;;;11.40;82.41
22653;BME280;11493;43.344;26.226;2023-12-20T12:15:54;98718.97;;;11.52;81.90
22653;BME280;11493;43.344;26.226;2023-12-20T12:18:21;98722.59;;;11.65;82.24
22653;BME280;11493;43.344;26.226;2023-12-20T12:20:48;98706.19;;;11.68;82.29
22653;BME280;11493;43.344;26.226;2023-12-20T12:23:23;98709.31;;;11.88;82.20
22653;BME280;11493;43.344;26.226;2023-12-20T12:25:50;98720.66;;;12.19;79.87
22653;BME280;11493;43.344;26.226;2023-12-20T12:28:19;98707.66;;;12.53;79.46
22653;BME280;11493;43.344;26.226;2023-12-20T12:31:00;98708.03;;;13.64;79.50
22653;BME280;11493;43.344;26.226;2023-12-20T12:33:27;98689.16;;;14.69;74.23
22653;BME280;11493;43.344;26.226;2023-12-20T12:35:55;98686.94;;;15.26;70.52
22653;BME280;11493;43.344;26.226;2023-12-20T12:38:24;98683.00;;;15.27;67.00
22653;BME280;11493;43.344;26.226;2023-12-20T12:40:50;98675.91;;;14.94;67.96
22653;BME280;11493;43.344;26.226;2023-12-20T12:43:20;98675.06;;;14.59;69.24
22653;BME280;11493;43.344;26.226;2023-12-20T12:45:49;98663.34;;;14.65;71.25
22653;BME280;11493;43.344;26.226;2023-12-20T12:48:16;98681.22;;;16.34;67.11
22653;BME280;11493;43.344;26.226;2023-12-20T12:50:43;98676.50;;;17.03;63.56
22653;BME280;11493;43.344;26.226;2023-12-20T12:53:10;98677.66;;;17.02;63.76